sensor_id;sensor_type;location;lat;lon;timestamp;temperature;humidity
14049;DHT22;7099;53.922;10.728;2023-05-10T00:02:00;14.00;47.00
14049;DHT22;7099;53.922;10.728;2023-05-10T00:06:06;14.00;47.20
14049;DHT22;7099;53.922;10.728;2023-05-10T00:10:11;13.90;47.20
14049;DHT22;7099;53.922;10.728;2023-05-10T00:14:17;13.90;47.30
14049;DHT22;7099;53.922;10.728;2023-05-10T00:18:23;13.80;47.40
14049;DHT22;7099;53.922;10.728;2023-05-10T00:22:29;13.80;47.60
14049;DHT22;7099;53.922;10.728;2023-05-10T00:26:35;13.80;47.70
14049;DHT22;7099;53.922;10.728;2023-05-10T00:30:40;13.70;47.70
14049;DHT22;7099;53.922;10.728;2023-05-10T00:34:46;13.70;47.80
14049;DHT22;7099;53.922;10.728;2023-05-10T00:38:52;13.70;47.90
14049;DHT22;7099;53.922;10.728;2023-05-10T00:42:57;13.70;48.10
14049;DHT22;7099;53.922;10.728;2023-05-10T00:47:04;13.70;48.30
14049;DHT22;7099;53.922;10.728;2023-05-10T00:51:10;13.60;48.20
14049;DHT22;7099;53.922;10.728;2023-05-10T00:55:16;13.60;48.30
14049;DHT22;7099;53.922;10.728;2023-05-10T00:59:22;13.60;48.30
14049;DHT22;7099;53.922;10.728;2023-05-10T01:03:28;13.60;48.70
14049;DHT22;7099;53.922;10.728;2023-05-10T01:07:34;13.60;48.80
14049;DHT22;7099;53.922;10.728;2023-05-10T01:11:40;13.60;48.90
14049;DHT22;7099;53.922;10.728;2023-05-10T01:15:46;13.50;49.20
14049;DHT22;7099;53.922;10.728;2023-05-10T01:19:52;13.50;49.10
14049;DHT22;7099;53.922;10.728;2023-05-10T01:37:21;13.30;49.40
14049;DHT22;7099;53.922;10.728;2023-05-10T01:41:52;13.30;49.70
14049;DHT22;7099;53.922;10.728;2023-05-10T01:46:10;13.30;50.00
14049;DHT22;7099;53.922;10.728;2023-05-10T01:50:27;13.20;50.00
14049;DHT22;7099;53.922;10.728;2023-05-10T01:54:35;13.20;50.10
14049;DHT22;7099;53.922;10.728;2023-05-10T01:58:46;13.10;50.60
14049;DHT22;7099;53.922;10.728;2023-05-10T02:02:57;13.10;50.40
14049;DHT22;7099;53.922;10.728;2023-05-10T02:07:03;13.10;50.30
14049;DHT22;7099;53.922;10.728;2023-05-10T02:11:13;13.10;50.50
14049;DHT22;7099;53.922;10.728;2023-05-10T02:15:23;13.10;50.70
14049;DHT22;7099;53.922;10.728;2023-05-10T02:19:30;13.00;51.20
14049;DHT22;7099;53.922;10.728;2023-05-10T02:23:38;13.00;51.00
14049;DHT22;7099;53.922;10.728;2023-05-10T02:27:44;12.90;51.20
14049;DHT22;7099;53.922;10.728;2023-05-10T02:31:53;12.90;51.50
14049;DHT22;7099;53.922;10.728;2023-05-10T02:36:01;12.80;51.50
14049;DHT22;7099;53.922;10.728;2023-05-10T02:40:07;12.80;51.80
14049;DHT22;7099;53.922;10.728;2023-05-10T02:44:15;12.70;51.90
14049;DHT22;7099;53.922;10.728;2023-05-10T02:48:23;12.70;52.00
14049;DHT22;7099;53.922;10.728;2023-05-10T02:52:39;12.70;52.30
14049;DHT22;7099;53.922;10.728;2023-05-10T02:56:51;12.60;52.60
14049;DHT22;7099;53.922;10.728;2023-05-10T03:01:00;12.60;52.60
14049;DHT22;7099;53.922;10.728;2023-05-10T03:05:06;12.60;52.50
14049;DHT22;7099;53.922;10.728;2023-05-10T03:09:12;12.60;52.60
14049;DHT22;7099;53.922;10.728;2023-05-10T03:13:31;12.50;52.80
14049;DHT22;7099;53.922;10.728;2023-05-10T03:22:42;12.40;53.10
14049;DHT22;7099;53.922;10.728;2023-05-10T03:26:52;12.40;53.90
14049;DHT22;7099;53.922;10.728;2023-05-10T03:31:03;12.40;53.40
14049;DHT22;7099;53.922;10.728;2023-05-10T03:35:11;12.30;53.50
14049;DHT22;7099;53.922;10.728;2023-05-10T03:39:18;12.20;53.80
14049;DHT22;7099;53.922;10.728;2023-05-10T03:43:24;12.20;53.80
14049;DHT22;7099;53.922;10.728;2023-05-10T03:47:29;12.20;54.00
14049;DHT22;7099;53.922;10.728;2023-05-10T03:51:35;12.20;54.00
14049;DHT22;7099;53.922;10.728;2023-05-10T03:55:41;12.20;54.20
14049;DHT22;7099;53.922;10.728;2023-05-10T03:59:46;12.20;54.40
14049;DHT22;7099;53.922;10.728;2023-05-10T04:03:52;12.20;54.50
14049;DHT22;7099;53.922;10.728;2023-05-10T04:07:58;12.10;54.50
14049;DHT22;7099;53.922;10.728;2023-05-10T04:12:03;12.20;54.50
14049;DHT22;7099;53.922;10.728;2023-05-10T04:16:09;12.20;54.50
14049;DHT22;7099;53.922;10.728;2023-05-10T04:20:15;12.20;54.50
14049;DHT22;7099;53.922;10.728;2023-05-10T04:24:21;12.30;54.60
14049;DHT22;7099;53.922;10.728;2023-05-10T04:28:27;12.30;54.70
14049;DHT22;7099;53.922;10.728;2023-05-10T04:32:33;12.30;54.80
14049;DHT22;7099;53.922;10.728;2023-05-10T04:36:38;12.40;54.80
14049;DHT22;7099;53.922;10.728;2023-05-10T04:40:44;12.40;54.60
14049;DHT22;7099;53.922;10.728;2023-05-10T04:44:49;12.50;54.70
14049;DHT22;7099;53.922;10.728;2023-05-10T04:48:55;12.50;54.70
14049;DHT22;7099;53.922;10.728;2023-05-10T04:53:01;12.60;54.50
14049;DHT22;7099;53.922;10.728;2023-05-10T04:57:06;12.70;54.70
14049;DHT22;7099;53.922;10.728;2023-05-10T05:01:12;12.80;54.80
14049;DHT22;7099;53.922;10.728;2023-05-10T05:05:18;12.80;54.80
14049;DHT22;7099;53.922;10.728;2023-05-10T05:09:23;13.00;54.90
14049;DHT22;7099;53.922;10.728;2023-05-10T05:13:29;13.10;54.70
14049;DHT22;7099;53.922;10.728;2023-05-10T05:17:35;13.20;54.80
14049;DHT22;7099;53.922;10.728;2023-05-10T05:21:41;13.30;54.70
14049;DHT22;7099;53.922;10.728;2023-05-10T05:25:46;13.40;54.40
14049;DHT22;7099;53.922;10.728;2023-05-10T05:29:53;13.40;54.60
14049;DHT22;7099;53.922;10.728;2023-05-10T05:33:59;13.50;54.00
14049;DHT22;7099;53.922;10.728;2023-05-10T05:38:05;13.50;54.10
14049;DHT22;7099;53.922;10.728;2023-05-10T05:42:12;13.50;54.20
14049;DHT22;7099;53.922;10.728;2023-05-10T05:46:19;13.50;54.30
14049;DHT22;7099;53.922;10.728;2023-05-10T05:50:24;13.60;54.20
14049;DHT22;7099;53.922;10.728;2023-05-10T05:54:31;13.80;54.20
14049;DHT22;7099;53.922;10.728;2023-05-10T05:58:37;13.90;54.20
14049;DHT22;7099;53.922;10.728;2023-05-10T06:02:42;14.10;54.10
14049;DHT22;7099;53.922;10.728;2023-05-10T06:06:48;14.10;54.10
14049;DHT22;7099;53.922;10.728;2023-05-10T06:10:54;14.20;53.70
14049;DHT22;7099;53.922;10.728;2023-05-10T06:15:00;14.40;53.80
14049;DHT22;7099;53.922;10.728;2023-05-10T06:19:05;14.50;53.80
14049;DHT22;7099;53.922;10.728;2023-05-10T06:23:11;14.70;53.40
14049;DHT22;7099;53.922;10.728;2023-05-10T06:27:17;14.80;53.60
14049;DHT22;7099;53.922;10.728;2023-05-10T06:31:22;14.90;52.90
14049;DHT22;7099;53.922;10.728;2023-05-10T06:35:28;15.10;53.20
14049;DHT22;7099;53.922;10.728;2023-05-10T06:39:34;15.10;52.80
14049;DHT22;7099;53.922;10.728;2023-05-10T06:43:40;15.30;52.90
14049;DHT22;7099;53.922;10.728;2023-05-10T06:47:46;15.40;53.40
14049;DHT22;7099;53.922;10.728;2023-05-10T06:51:52;15.60;52.70
14049;DHT22;7099;53.922;10.728;2023-05-10T06:55:57;15.70;52.60
14049;DHT22;7099;53.922;10.728;2023-05-10T07:00:04;15.70;52.30
14049;DHT22;7099;53.922;10.728;2023-05-10T07:04:10;15.90;51.90
14049;DHT22;7099;53.922;10.728;2023-05-10T07:08:16;16.10;51.60
14049;DHT22;7099;53.922;10.728;2023-05-10T07:12:21;16.30;51.60
14049;DHT22;7099;53.922;10.728;2023-05-10T07:16:27;16.40;51.40
14049;DHT22;7099;53.922;10.728;2023-05-10T07:20:33;16.50;50.70
14049;DHT22;7099;53.922;10.728;2023-05-10T07:24:38;16.70;51.10
14049;DHT22;7099;53.922;10.728;2023-05-10T07:28:44;17.00;51.20
14049;DHT22;7099;53.922;10.728;2023-05-10T07:32:49;17.20;50.40
14049;DHT22;7099;53.922;10.728;2023-05-10T07:36:57;17.30;50.00
14049;DHT22;7099;53.922;10.728;2023-05-10T07:41:03;17.50;50.90
14049;DHT22;7099;53.922;10.728;2023-05-10T07:45:09;17.70;50.30
14049;DHT22;7099;53.922;10.728;2023-05-10T07:49:15;18.00;51.10
14049;DHT22;7099;53.922;10.728;2023-05-10T07:53:21;18.20;49.00
14049;DHT22;7099;53.922;10.728;2023-05-10T07:57:26;18.30;49.30
14049;DHT22;7099;53.922;10.728;2023-05-10T08:01:34;18.40;49.10
14049;DHT22;7099;53.922;10.728;2023-05-10T08:05:40;18.60;48.50
14049;DHT22;7099;53.922;10.728;2023-05-10T08:09:46;18.70;48.20
14049;DHT22;7099;53.922;10.728;2023-05-10T08:13:52;18.80;48.60
14049;DHT22;7099;53.922;10.728;2023-05-10T08:17:57;19.00;48.80
14049;DHT22;7099;53.922;10.728;2023-05-10T08:22:03;19.20;48.20
14049;DHT22;7099;53.922;10.728;2023-05-10T08:26:09;19.40;47.70
14049;DHT22;7099;53.922;10.728;2023-05-10T08:30:15;19.50;47.90
14049;DHT22;7099;53.922;10.728;2023-05-10T08:34:20;19.70;47.90
14049;DHT22;7099;53.922;10.728;2023-05-10T08:38:26;19.80;46.50
14049;DHT22;7099;53.922;10.728;2023-05-10T08:42:34;19.80;47.30
14049;DHT22;7099;53.922;10.728;2023-05-10T08:46:46;19.90;46.70
14049;DHT22;7099;53.922;10.728;2023-05-10T08:50:58;19.90;47.00
14049;DHT22;7099;53.922;10.728;2023-05-10T08:55:05;20.10;46.60
14049;DHT22;7099;53.922;10.728;2023-05-10T08:59:14;20.20;46.80
14049;DHT22;7099;53.922;10.728;2023-05-10T09:03:20;20.40;46.10
14049;DHT22;7099;53.922;10.728;2023-05-10T09:07:26;20.60;46.40
14049;DHT22;7099;53.922;10.728;2023-05-10T09:11:32;20.80;46.20
14049;DHT22;7099;53.922;10.728;2023-05-10T09:15:38;20.90;45.10
14049;DHT22;7099;53.922;10.728;2023-05-10T09:19:45;21.00;45.40
14049;DHT22;7099;53.922;10.728;2023-05-10T09:23:51;21.20;44.80
14049;DHT22;7099;53.922;10.728;2023-05-10T09:27:59;21.40;44.20
14049;DHT22;7099;53.922;10.728;2023-05-10T09:32:05;21.50;44.70
14049;DHT22;7099;53.922;10.728;2023-05-10T09:36:11;21.70;44.70
14049;DHT22;7099;53.922;10.728;2023-05-10T09:40:22;21.80;43.60
14049;DHT22;7099;53.922;10.728;2023-05-10T09:44:33;21.90;44.60
14049;DHT22;7099;53.922;10.728;2023-05-10T09:48:44;22.20;44.60
14049;DHT22;7099;53.922;10.728;2023-05-10T09:52:56;22.30;42.70
14049;DHT22;7099;53.922;10.728;2023-05-10T09:57:19;22.20;42.30
14049;DHT22;7099;53.922;10.728;2023-05-10T10:01:27;22.10;42.70
14049;DHT22;7099;53.922;10.728;2023-05-10T10:05:35;22.20;42.90
14049;DHT22;7099;53.922;10.728;2023-05-10T10:09:44;22.30;43.80
14049;DHT22;7099;53.922;10.728;2023-05-10T10:13:50;22.50;42.50
14049;DHT22;7099;53.922;10.728;2023-05-10T10:17:55;22.60;43.50
14049;DHT22;7099;53.922;10.728;2023-05-10T10:22:01;22.70;43.60
14049;DHT22;7099;53.922;10.728;2023-05-10T10:26:08;22.80;42.90
14049;DHT22;7099;53.922;10.728;2023-05-10T10:34:30;22.90;43.80
14049;DHT22;7099;53.922;10.728;2023-05-10T10:42:52;23.10;43.00
14049;DHT22;7099;53.922;10.728;2023-05-10T10:51:17;23.30;43.20
14049;DHT22;7099;53.922;10.728;2023-05-10T10:55:25;23.40;42.80
14049;DHT22;7099;53.922;10.728;2023-05-10T10:59:34;23.50;43.20
14049;DHT22;7099;53.922;10.728;2023-05-10T11:03:39;23.60;42.00
14049;DHT22;7099;53.922;10.728;2023-05-10T11:07:56;23.40;41.90
14049;DHT22;7099;53.922;10.728;2023-05-10T11:12:08;23.30;41.90
14049;DHT22;7099;53.922;10.728;2023-05-10T11:16:16;23.30;42.40
14049;DHT22;7099;53.922;10.728;2023-05-10T11:20:32;23.40;42.20
14049;DHT22;7099;53.922;10.728;2023-05-10T11:24:56;23.60;42.40
14049;DHT22;7099;53.922;10.728;2023-05-10T11:29:03;23.70;43.00
14049;DHT22;7099;53.922;10.728;2023-05-10T11:33:15;23.80;41.60
14049;DHT22;7099;53.922;10.728;2023-05-10T11:37:21;23.90;41.90
14049;DHT22;7099;53.922;10.728;2023-05-10T11:41:29;23.80;42.90
14049;DHT22;7099;53.922;10.728;2023-05-10T11:45:35;23.60;43.40
14049;DHT22;7099;53.922;10.728;2023-05-10T11:49:44;23.70;42.80
14049;DHT22;7099;53.922;10.728;2023-05-10T11:53:55;23.70;43.10
14049;DHT22;7099;53.922;10.728;2023-05-10T11:58:02;23.70;42.30
14049;DHT22;7099;53.922;10.728;2023-05-10T12:02:08;23.60;42.40
14049;DHT22;7099;53.922;10.728;2023-05-10T12:06:13;23.60;42.50
14049;DHT22;7099;53.922;10.728;2023-05-10T12:10:26;23.40;43.10
14049;DHT22;7099;53.922;10.728;2023-05-10T12:14:34;23.40;42.50
14049;DHT22;7099;53.922;10.728;2023-05-10T12:18:41;23.30;43.20
14049;DHT22;7099;53.922;10.728;2023-05-10T12:22:55;23.20;43.40
14049;DHT22;7099;53.922;10.728;2023-05-10T12:27:05;23.10;44.20
14049;DHT22;7099;53.922;10.728;2023-05-10T12:31:13;23.00;43.70
14049;DHT22;7099;53.922;10.728;2023-05-10T12:35:19;22.80;43.70
14049;DHT22;7099;53.922;10.728;2023-05-10T12:39:55;22.70;43.60
14049;DHT22;7099;53.922;10.728;2023-05-10T12:44:01;22.60;43.60
14049;DHT22;7099;53.922;10.728;2023-05-10T12:48:07;22.50;44.20
14049;DHT22;7099;53.922;10.728;2023-05-10T12:52:13;22.40;44.30
14049;DHT22;7099;53.922;10.728;2023-05-10T12:56:18;22.30;44.70
14049;DHT22;7099;53.922;10.728;2023-05-10T13:00:28;22.10;45.70
14049;DHT22;7099;53.922;10.728;2023-05-10T13:04:34;21.90;47.30
14049;DHT22;7099;53.922;10.728;2023-05-10T13:08:39;21.60;47.70
14049;DHT22;7099;53.922;10.728;2023-05-10T13:12:45;21.20;48.80
14049;DHT22;7099;53.922;10.728;2023-05-10T13:16:51;21.10;50.00
14049;DHT22;7099;53.922;10.728;2023-05-10T13:20:57;21.00;50.40
14049;DHT22;7099;53.922;10.728;2023-05-10T13:25:03;20.90;51.20
14049;DHT22;7099;53.922;10.728;2023-05-10T13:29:09;20.70;52.30
14049;DHT22;7099;53.922;10.728;2023-05-10T13:33:14;20.50;53.10
14049;DHT22;7099;53.922;10.728;2023-05-10T13:37:20;20.20;54.60
14049;DHT22;7099;53.922;10.728;2023-05-10T13:41:26;20.10;55.00
14049;DHT22;7099;53.922;10.728;2023-05-10T13:45:32;20.00;55.20
14049;DHT22;7099;53.922;10.728;2023-05-10T13:49:38;19.90;55.60
14049;DHT22;7099;53.922;10.728;2023-05-10T13:53:44;19.80;56.00
14049;DHT22;7099;53.922;10.728;2023-05-10T13:57:49;19.80;56.10
14049;DHT22;7099;53.922;10.728;2023-05-10T14:01:55;19.70;56.10
14049;DHT22;7099;53.922;10.728;2023-05-10T14:06:01;19.70;56.60
14049;DHT22;7099;53.922;10.728;2023-05-10T14:10:07;19.70;56.40
14049;DHT22;7099;53.922;10.728;2023-05-10T14:14:13;19.60;56.30
14049;DHT22;7099;53.922;10.728;2023-05-10T14:18:18;19.40;56.50
14049;DHT22;7099;53.922;10.728;2023-05-10T14:22:24;19.30;57.00
14049;DHT22;7099;53.922;10.728;2023-05-10T14:26:33;19.20;57.40
14049;DHT22;7099;53.922;10.728;2023-05-10T14:30:41;19.20;57.70
14049;DHT22;7099;53.922;10.728;2023-05-10T14:34:47;19.10;57.60
14049;DHT22;7099;53.922;10.728;2023-05-10T14:38:52;19.10;58.10
14049;DHT22;7099;53.922;10.728;2023-05-10T14:42:59;19.10;58.60
14049;DHT22;7099;53.922;10.728;2023-05-10T14:47:04;19.10;59.20
14049;DHT22;7099;53.922;10.728;2023-05-10T14:51:10;19.10;59.70
14049;DHT22;7099;53.922;10.728;2023-05-10T14:55:18;19.10;59.60
14049;DHT22;7099;53.922;10.728;2023-05-10T14:59:24;19.10;60.00
14049;DHT22;7099;53.922;10.728;2023-05-10T15:03:30;19.10;60.20
14049;DHT22;7099;53.922;10.728;2023-05-10T15:07:37;19.20;60.10
14049;DHT22;7099;53.922;10.728;2023-05-10T15:11:43;19.10;59.90
14049;DHT22;7099;53.922;10.728;2023-05-10T15:15:49;19.20;60.80
14049;DHT22;7099;53.922;10.728;2023-05-10T15:19:55;19.20;60.40
14049;DHT22;7099;53.922;10.728;2023-05-10T15:24:00;19.20;60.80
14049;DHT22;7099;53.922;10.728;2023-05-10T15:28:06;19.10;60.70
14049;DHT22;7099;53.922;10.728;2023-05-10T15:32:12;19.10;60.90
14049;DHT22;7099;53.922;10.728;2023-05-10T15:36:17;19.10;61.60
14049;DHT22;7099;53.922;10.728;2023-05-10T15:40:23;19.10;61.50
14049;DHT22;7099;53.922;10.728;2023-05-10T15:44:28;19.10;61.70
14049;DHT22;7099;53.922;10.728;2023-05-10T15:48:35;19.10;61.80
14049;DHT22;7099;53.922;10.728;2023-05-10T15:52:40;19.10;61.80
14049;DHT22;7099;53.922;10.728;2023-05-10T15:56:46;19.10;62.40
14049;DHT22;7099;53.922;10.728;2023-05-10T16:00:52;19.10;62.60
14049;DHT22;7099;53.922;10.728;2023-05-10T16:04:57;19.00;62.30
14049;DHT22;7099;53.922;10.728;2023-05-10T16:09:03;19.00;62.50
14049;DHT22;7099;53.922;10.728;2023-05-10T16:13:09;19.00;62.70
14049;DHT22;7099;53.922;10.728;2023-05-10T16:17:14;18.90;63.00
14049;DHT22;7099;53.922;10.728;2023-05-10T16:21:20;19.00;63.00
14049;DHT22;7099;53.922;10.728;2023-05-10T16:25:26;18.90;62.90
14049;DHT22;7099;53.922;10.728;2023-05-10T16:29:32;18.90;62.50
14049;DHT22;7099;53.922;10.728;2023-05-10T16:33:37;18.80;63.10
14049;DHT22;7099;53.922;10.728;2023-05-10T16:37:43;18.80;63.80
14049;DHT22;7099;53.922;10.728;2023-05-10T16:41:48;18.70;63.50
14049;DHT22;7099;53.922;10.728;2023-05-10T16:45:55;18.70;63.50
14049;DHT22;7099;53.922;10.728;2023-05-10T16:50:01;18.70;63.60
14049;DHT22;7099;53.922;10.728;2023-05-10T16:54:07;18.70;63.80
14049;DHT22;7099;53.922;10.728;2023-05-10T16:58:13;18.60;63.80
14049;DHT22;7099;53.922;10.728;2023-05-10T17:02:19;18.60;64.00
14049;DHT22;7099;53.922;10.728;2023-05-10T17:06:25;18.60;64.00
14049;DHT22;7099;53.922;10.728;2023-05-10T17:10:30;18.60;63.80
14049;DHT22;7099;53.922;10.728;2023-05-10T17:14:36;18.60;64.20
14049;DHT22;7099;53.922;10.728;2023-05-10T17:18:45;18.60;64.40
14049;DHT22;7099;53.922;10.728;2023-05-10T17:22:50;18.50;64.30
14049;DHT22;7099;53.922;10.728;2023-05-10T17:26:56;18.50;64.20
14049;DHT22;7099;53.922;10.728;2023-05-10T17:31:01;18.50;64.20
14049;DHT22;7099;53.922;10.728;2023-05-10T17:35:07;18.50;64.40
14049;DHT22;7099;53.922;10.728;2023-05-10T17:39:14;18.50;64.40
14049;DHT22;7099;53.922;10.728;2023-05-10T17:43:19;18.50;64.60
14049;DHT22;7099;53.922;10.728;2023-05-10T17:47:25;18.50;64.70
14049;DHT22;7099;53.922;10.728;2023-05-10T17:51:32;18.50;65.00
14049;DHT22;7099;53.922;10.728;2023-05-10T17:55:41;18.50;65.10
14049;DHT22;7099;53.922;10.728;2023-05-10T17:59:46;18.50;65.00
14049;DHT22;7099;53.922;10.728;2023-05-10T18:03:52;18.40;65.00
14049;DHT22;7099;53.922;10.728;2023-05-10T18:07:57;18.40;64.70
14049;DHT22;7099;53.922;10.728;2023-05-10T18:12:03;18.40;64.80
14049;DHT22;7099;53.922;10.728;2023-05-10T18:16:10;18.30;64.80
14049;DHT22;7099;53.922;10.728;2023-05-10T18:20:17;18.30;64.60
14049;DHT22;7099;53.922;10.728;2023-05-10T18:24:23;18.30;64.70
14049;DHT22;7099;53.922;10.728;2023-05-10T18:28:42;18.20;64.60
14049;DHT22;7099;53.922;10.728;2023-05-10T18:32:48;18.20;64.60
14049;DHT22;7099;53.922;10.728;2023-05-10T18:36:54;18.10;64.50
14049;DHT22;7099;53.922;10.728;2023-05-10T18:41:00;18.10;64.60
14049;DHT22;7099;53.922;10.728;2023-05-10T18:45:06;18.10;64.80
14049;DHT22;7099;53.922;10.728;2023-05-10T18:49:13;18.00;64.90
14049;DHT22;7099;53.922;10.728;2023-05-10T18:53:18;18.00;65.10
14049;DHT22;7099;53.922;10.728;2023-05-10T18:57:24;17.90;65.00
14049;DHT22;7099;53.922;10.728;2023-05-10T19:01:29;17.80;65.20
14049;DHT22;7099;53.922;10.728;2023-05-10T19:05:35;17.80;65.30
14049;DHT22;7099;53.922;10.728;2023-05-10T19:09:40;17.70;65.40
14049;DHT22;7099;53.922;10.728;2023-05-10T19:13:46;17.60;65.50
14049;DHT22;7099;53.922;10.728;2023-05-10T19:17:52;17.60;65.70
14049;DHT22;7099;53.922;10.728;2023-05-10T19:21:57;17.50;65.80
14049;DHT22;7099;53.922;10.728;2023-05-10T19:26:03;17.40;65.90
14049;DHT22;7099;53.922;10.728;2023-05-10T19:30:10;17.40;66.10
14049;DHT22;7099;53.922;10.728;2023-05-10T19:34:16;17.30;66.30
14049;DHT22;7099;53.922;10.728;2023-05-10T19:38:23;17.30;66.60
14049;DHT22;7099;53.922;10.728;2023-05-10T19:42:29;17.20;66.70
14049;DHT22;7099;53.922;10.728;2023-05-10T19:46:35;17.00;67.00
14049;DHT22;7099;53.922;10.728;2023-05-10T19:50:41;17.00;67.30
14049;DHT22;7099;53.922;10.728;2023-05-10T19:54:46;16.90;67.50
14049;DHT22;7099;53.922;10.728;2023-05-10T19:58:52;16.90;67.60
14049;DHT22;7099;53.922;10.728;2023-05-10T20:02:58;16.80;67.80
14049;DHT22;7099;53.922;10.728;2023-05-10T20:07:04;16.80;67.90
14049;DHT22;7099;53.922;10.728;2023-05-10T20:11:10;16.70;68.20
14049;DHT22;7099;53.922;10.728;2023-05-10T20:15:17;16.70;68.50
14049;DHT22;7099;53.922;10.728;2023-05-10T20:19:24;16.70;68.80
14049;DHT22;7099;53.922;10.728;2023-05-10T20:23:30;16.70;68.90
14049;DHT22;7099;53.922;10.728;2023-05-10T20:27:36;16.60;69.10
14049;DHT22;7099;53.922;10.728;2023-05-10T20:31:41;16.60;69.30
14049;DHT22;7099;53.922;10.728;2023-05-10T20:35:48;16.50;69.60
14049;DHT22;7099;53.922;10.728;2023-05-10T20:39:55;16.40;70.10
14049;DHT22;7099;53.922;10.728;2023-05-10T20:44:01;16.30;70.20
14049;DHT22;7099;53.922;10.728;2023-05-10T20:48:07;16.20;70.40
14049;DHT22;7099;53.922;10.728;2023-05-10T20:52:13;16.20;70.70
14049;DHT22;7099;53.922;10.728;2023-05-10T20:56:19;16.10;70.70
14049;DHT22;7099;53.922;10.728;2023-05-10T21:00:25;16.00;71.00
14049;DHT22;7099;53.922;10.728;2023-05-10T21:04:31;16.00;71.20
14049;DHT22;7099;53.922;10.728;2023-05-10T21:08:36;15.90;71.40
14049;DHT22;7099;53.922;10.728;2023-05-10T21:12:42;15.90;71.60
14049;DHT22;7099;53.922;10.728;2023-05-10T21:16:48;15.90;71.70
14049;DHT22;7099;53.922;10.728;2023-05-10T21:20:55;15.80;71.70
14049;DHT22;7099;53.922;10.728;2023-05-10T21:25:01;15.80;71.90
14049;DHT22;7099;53.922;10.728;2023-05-10T21:29:06;15.80;71.80
14049;DHT22;7099;53.922;10.728;2023-05-10T21:33:13;15.70;71.80
14049;DHT22;7099;53.922;10.728;2023-05-10T21:37:18;15.70;72.00
14049;DHT22;7099;53.922;10.728;2023-05-10T21:41:24;15.70;71.90
14049;DHT22;7099;53.922;10.728;2023-05-10T21:45:30;15.60;72.70
14049;DHT22;7099;53.922;10.728;2023-05-10T21:49:37;15.60;72.10
14049;DHT22;7099;53.922;10.728;2023-05-10T21:53:42;15.60;71.90
14049;DHT22;7099;53.922;10.728;2023-05-10T21:57:49;15.60;72.00
14049;DHT22;7099;53.922;10.728;2023-05-10T22:01:55;15.60;72.20
14049;DHT22;7099;53.922;10.728;2023-05-10T22:06:01;15.50;72.10
14049;DHT22;7099;53.922;10.728;2023-05-10T22:10:07;15.50;72.10
14049;DHT22;7099;53.922;10.728;2023-05-10T22:14:13;15.40;72.10
14049;DHT22;7099;53.922;10.728;2023-05-10T22:18:19;15.40;72.00
14049;DHT22;7099;53.922;10.728;2023-05-10T22:22:25;15.30;72.00
14049;DHT22;7099;53.922;10.728;2023-05-10T22:26:31;15.30;72.10
14049;DHT22;7099;53.922;10.728;2023-05-10T22:30:36;15.20;72.20
14049;DHT22;7099;53.922;10.728;2023-05-10T22:34:42;15.20;72.30
14049;DHT22;7099;53.922;10.728;2023-05-10T22:38:47;15.20;72.40
14049;DHT22;7099;53.922;10.728;2023-05-10T22:42:53;15.20;72.60
14049;DHT22;7099;53.922;10.728;2023-05-10T22:46:58;15.10;72.80
14049;DHT22;7099;53.922;10.728;2023-05-10T22:51:04;15.10;73.10
14049;DHT22;7099;53.922;10.728;2023-05-10T22:55:10;15.10;73.20
14049;DHT22;7099;53.922;10.728;2023-05-10T22:59:16;15.00;73.40
14049;DHT22;7099;53.922;10.728;2023-05-10T23:03:22;15.00;73.60
14049;DHT22;7099;53.922;10.728;2023-05-10T23:07:27;15.00;73.70
14049;DHT22;7099;53.922;10.728;2023-05-10T23:11:33;15.10;73.90
14049;DHT22;7099;53.922;10.728;2023-05-10T23:15:38;15.00;73.90
14049;DHT22;7099;53.922;10.728;2023-05-10T23:19:44;15.10;74.20
14049;DHT22;7099;53.922;10.728;2023-05-10T23:23:50;15.10;74.20
14049;DHT22;7099;53.922;10.728;2023-05-10T23:27:56;15.00;74.40
14049;DHT22;7099;53.922;10.728;2023-05-10T23:32:02;15.00;74.40
14049;DHT22;7099;53.922;10.728;2023-05-10T23:36:08;15.00;74.60
14049;DHT22;7099;53.922;10.728;2023-05-10T23:40:14;15.00;74.80
14049;DHT22;7099;53.922;10.728;2023-05-10T23:44:19;15.00;75.00
14049;DHT22;7099;53.922;10.728;2023-05-10T23:48:26;15.00;75.10
14049;DHT22;7099;53.922;10.728;2023-05-10T23:52:32;15.00;75.10
14049;DHT22;7099;53.922;10.728;2023-05-10T23:56:37;15.00;75.10
